sensor_id;sensor_type;location;lat;lon;timestamp;temperature;humidity
68128;SHT30;54931;52.098;21.006;2023-05-07T00:00:37;5.61;83.31
68128;SHT30;54931;52.098;21.006;2023-05-07T00:03:19;5.60;83.36
68128;SHT30;54931;52.098;21.006;2023-05-07T00:05:48;5.58;83.35
68128;SHT30;54931;52.098;21.006;2023-05-07T00:08:15;5.58;83.38
68128;SHT30;54931;52.098;21.006;2023-05-07T00:10:43;5.58;83.44
68128;SHT30;54931;52.098;21.006;2023-05-07T00:13:11;5.56;83.55
68128;SHT30;54931;52.098;21.006;2023-05-07T00:15:38;5.54;83.62
68128;SHT30;54931;52.098;21.006;2023-05-07T00:18:06;5.53;83.61
68128;SHT30;54931;52.098;21.006;2023-05-07T00:20:34;5.52;83.74
68128;SHT30;54931;52.098;21.006;2023-05-07T00:23:01;5.49;83.82
68128;SHT30;54931;52.098;21.006;2023-05-07T00:25:29;5.49;83.83
68128;SHT30;54931;52.098;21.006;2023-05-07T00:27:57;5.47;83.92
68128;SHT30;54931;52.098;21.006;2023-05-07T00:30:29;5.47;83.86
68128;SHT30;54931;52.098;21.006;2023-05-07T00:32:57;5.47;83.88
68128;SHT30;54931;52.098;21.006;2023-05-07T00:35:25;5.45;83.93
68128;SHT30;54931;52.098;21.006;2023-05-07T00:37:52;5.45;84.01
68128;SHT30;54931;52.098;21.006;2023-05-07T00:40:20;5.43;84.06
68128;SHT30;54931;52.098;21.006;2023-05-07T00:42:49;5.42;84.09
68128;SHT30;54931;52.098;21.006;2023-05-07T00:45:17;5.43;84.17
68128;SHT30;54931;52.098;21.006;2023-05-07T00:47:45;5.41;84.28
68128;SHT30;54931;52.098;21.006;2023-05-07T00:50:13;5.41;84.29
68128;SHT30;54931;52.098;21.006;2023-05-07T00:52:40;5.40;84.31
68128;SHT30;54931;52.098;21.006;2023-05-07T00:55:09;5.39;84.39
68128;SHT30;54931;52.098;21.006;2023-05-07T00:57:37;5.39;84.41
68128;SHT30;54931;52.098;21.006;2023-05-07T01:00:08;5.39;84.50
68128;SHT30;54931;52.098;21.006;2023-05-07T01:02:38;5.38;84.54
68128;SHT30;54931;52.098;21.006;2023-05-07T01:05:07;5.38;84.53
68128;SHT30;54931;52.098;21.006;2023-05-07T01:07:39;5.37;84.57
68128;SHT30;54931;52.098;21.006;2023-05-07T01:10:09;5.37;84.58
68128;SHT30;54931;52.098;21.006;2023-05-07T01:12:38;5.37;84.66
68128;SHT30;54931;52.098;21.006;2023-05-07T01:15:08;5.38;84.68
68128;SHT30;54931;52.098;21.006;2023-05-07T01:17:41;5.37;84.59
68128;SHT30;54931;52.098;21.006;2023-05-07T01:20:10;5.38;84.71
68128;SHT30;54931;52.098;21.006;2023-05-07T01:22:38;5.39;84.76
68128;SHT30;54931;52.098;21.006;2023-05-07T01:25:07;5.39;84.75
68128;SHT30;54931;52.098;21.006;2023-05-07T01:27:35;5.39;84.77
68128;SHT30;54931;52.098;21.006;2023-05-07T01:30:05;5.40;84.80
68128;SHT30;54931;52.098;21.006;2023-05-07T01:35:15;5.41;84.81
68128;SHT30;54931;52.098;21.006;2023-05-07T01:37:51;5.42;84.85
68128;SHT30;54931;52.098;21.006;2023-05-07T01:40:21;5.42;84.80
68128;SHT30;54931;52.098;21.006;2023-05-07T01:42:50;5.43;84.91
68128;SHT30;54931;52.098;21.006;2023-05-07T01:45:18;5.43;84.87
68128;SHT30;54931;52.098;21.006;2023-05-07T01:47:45;5.43;84.88
68128;SHT30;54931;52.098;21.006;2023-05-07T01:50:13;5.43;84.94
68128;SHT30;54931;52.098;21.006;2023-05-07T01:52:45;5.42;84.93
68128;SHT30;54931;52.098;21.006;2023-05-07T01:55:14;5.42;84.91
68128;SHT30;54931;52.098;21.006;2023-05-07T01:57:42;5.40;84.90
68128;SHT30;54931;52.098;21.006;2023-05-07T02:00:09;5.38;84.90
68128;SHT30;54931;52.098;21.006;2023-05-07T02:02:38;5.38;84.95
68128;SHT30;54931;52.098;21.006;2023-05-07T02:05:05;5.39;84.90
68128;SHT30;54931;52.098;21.006;2023-05-07T02:07:34;5.37;84.88
68128;SHT30;54931;52.098;21.006;2023-05-07T02:10:02;5.38;84.92
68128;SHT30;54931;52.098;21.006;2023-05-07T02:12:30;5.38;84.91
68128;SHT30;54931;52.098;21.006;2023-05-07T02:14:57;5.38;84.91
68128;SHT30;54931;52.098;21.006;2023-05-07T02:17:25;5.38;84.92
68128;SHT30;54931;52.098;21.006;2023-05-07T02:19:52;5.39;84.90
68128;SHT30;54931;52.098;21.006;2023-05-07T02:22:20;5.39;84.98
68128;SHT30;54931;52.098;21.006;2023-05-07T02:24:47;5.39;84.96
68128;SHT30;54931;52.098;21.006;2023-05-07T02:27:15;5.39;84.99
68128;SHT30;54931;52.098;21.006;2023-05-07T02:29:42;5.39;85.00
68128;SHT30;54931;52.098;21.006;2023-05-07T02:32:10;5.40;85.00
68128;SHT30;54931;52.098;21.006;2023-05-07T02:34:38;5.39;85.03
68128;SHT30;54931;52.098;21.006;2023-05-07T02:37:05;5.39;85.06
68128;SHT30;54931;52.098;21.006;2023-05-07T02:39:33;5.39;85.09
68128;SHT30;54931;52.098;21.006;2023-05-07T02:42:00;5.39;85.14
68128;SHT30;54931;52.098;21.006;2023-05-07T02:44:29;5.39;85.12
68128;SHT30;54931;52.098;21.006;2023-05-07T02:46:58;5.39;85.14
68128;SHT30;54931;52.098;21.006;2023-05-07T02:49:25;5.39;85.20
68128;SHT30;54931;52.098;21.006;2023-05-07T02:51:53;5.39;85.20
68128;SHT30;54931;52.098;21.006;2023-05-07T02:54:20;5.39;85.18
68128;SHT30;54931;52.098;21.006;2023-05-07T02:56:48;5.40;85.28
68128;SHT30;54931;52.098;21.006;2023-05-07T02:59:16;5.40;85.24
68128;SHT30;54931;52.098;21.006;2023-05-07T03:01:43;5.40;85.27
68128;SHT30;54931;52.098;21.006;2023-05-07T03:04:12;5.40;85.26
68128;SHT30;54931;52.098;21.006;2023-05-07T03:06:40;5.40;85.25
68128;SHT30;54931;52.098;21.006;2023-05-07T03:09:07;5.42;85.22
68128;SHT30;54931;52.098;21.006;2023-05-07T03:11:35;5.43;85.26
68128;SHT30;54931;52.098;21.006;2023-05-07T03:14:03;5.43;85.26
68128;SHT30;54931;52.098;21.006;2023-05-07T03:16:31;5.43;85.23
68128;SHT30;54931;52.098;21.006;2023-05-07T03:18:58;5.43;85.21
68128;SHT30;54931;52.098;21.006;2023-05-07T03:21:25;5.44;85.23
68128;SHT30;54931;52.098;21.006;2023-05-07T03:23:54;5.44;85.25
68128;SHT30;54931;52.098;21.006;2023-05-07T03:26:21;5.43;85.20
68128;SHT30;54931;52.098;21.006;2023-05-07T03:28:49;5.44;85.21
68128;SHT30;54931;52.098;21.006;2023-05-07T03:31:16;5.44;85.23
68128;SHT30;54931;52.098;21.006;2023-05-07T03:33:55;5.45;85.23
68128;SHT30;54931;52.098;21.006;2023-05-07T03:36:24;5.45;85.21
68128;SHT30;54931;52.098;21.006;2023-05-07T03:38:55;5.45;85.26
68128;SHT30;54931;52.098;21.006;2023-05-07T03:41:22;5.45;85.19
68128;SHT30;54931;52.098;21.006;2023-05-07T03:43:51;5.45;85.19
68128;SHT30;54931;52.098;21.006;2023-05-07T03:46:18;5.46;85.20
68128;SHT30;54931;52.098;21.006;2023-05-07T03:48:46;5.46;85.14
68128;SHT30;54931;52.098;21.006;2023-05-07T03:51:13;5.47;85.03
68128;SHT30;54931;52.098;21.006;2023-05-07T03:53:41;5.46;85.09
68128;SHT30;54931;52.098;21.006;2023-05-07T03:56:09;5.47;85.04
68128;SHT30;54931;52.098;21.006;2023-05-07T03:58:36;5.47;85.06
68128;SHT30;54931;52.098;21.006;2023-05-07T04:01:03;5.49;85.10
68128;SHT30;54931;52.098;21.006;2023-05-07T04:03:31;5.53;85.10
68128;SHT30;54931;52.098;21.006;2023-05-07T04:05:59;5.56;85.13
68128;SHT30;54931;52.098;21.006;2023-05-07T04:08:26;5.58;85.09
68128;SHT30;54931;52.098;21.006;2023-05-07T04:10:54;5.59;85.03
68128;SHT30;54931;52.098;21.006;2023-05-07T04:13:25;5.60;85.02
68128;SHT30;54931;52.098;21.006;2023-05-07T04:15:54;5.61;84.98
68128;SHT30;54931;52.098;21.006;2023-05-07T04:18:22;5.60;84.78
68128;SHT30;54931;52.098;21.006;2023-05-07T04:20:50;5.61;84.80
68128;SHT30;54931;52.098;21.006;2023-05-07T04:23:17;5.61;84.60
68128;SHT30;54931;52.098;21.006;2023-05-07T04:25:45;5.62;84.37
68128;SHT30;54931;52.098;21.006;2023-05-07T04:28:14;5.62;84.31
68128;SHT30;54931;52.098;21.006;2023-05-07T04:30:42;5.62;84.17
68128;SHT30;54931;52.098;21.006;2023-05-07T04:33:09;5.63;84.11
68128;SHT30;54931;52.098;21.006;2023-05-07T04:35:37;5.63;84.21
68128;SHT30;54931;52.098;21.006;2023-05-07T04:38:05;5.64;84.17
68128;SHT30;54931;52.098;21.006;2023-05-07T04:40:32;5.64;84.18
68128;SHT30;54931;52.098;21.006;2023-05-07T04:43:02;5.65;84.22
68128;SHT30;54931;52.098;21.006;2023-05-07T04:45:29;5.65;84.27
68128;SHT30;54931;52.098;21.006;2023-05-07T04:47:57;5.65;84.26
68128;SHT30;54931;52.098;21.006;2023-05-07T04:50:25;5.67;84.30
68128;SHT30;54931;52.098;21.006;2023-05-07T04:52:53;5.69;84.27
68128;SHT30;54931;52.098;21.006;2023-05-07T04:55:20;5.69;84.14
68128;SHT30;54931;52.098;21.006;2023-05-07T04:57:48;5.69;84.06
68128;SHT30;54931;52.098;21.006;2023-05-07T05:00:15;5.69;84.00
68128;SHT30;54931;52.098;21.006;2023-05-07T05:02:46;5.70;84.07
68128;SHT30;54931;52.098;21.006;2023-05-07T05:05:14;5.72;84.10
68128;SHT30;54931;52.098;21.006;2023-05-07T05:07:41;5.72;84.17
68128;SHT30;54931;52.098;21.006;2023-05-07T05:10:09;5.74;84.19
68128;SHT30;54931;52.098;21.006;2023-05-07T05:12:37;5.74;84.12
68128;SHT30;54931;52.098;21.006;2023-05-07T05:15:05;5.76;84.18
68128;SHT30;54931;52.098;21.006;2023-05-07T05:17:34;5.78;84.12
68128;SHT30;54931;52.098;21.006;2023-05-07T05:20:03;5.80;84.04
68128;SHT30;54931;52.098;21.006;2023-05-07T05:22:32;5.82;83.94
68128;SHT30;54931;52.098;21.006;2023-05-07T05:25:00;5.85;84.00
68128;SHT30;54931;52.098;21.006;2023-05-07T05:27:28;5.87;84.00
68128;SHT30;54931;52.098;21.006;2023-05-07T05:29:56;5.91;84.02
68128;SHT30;54931;52.098;21.006;2023-05-07T05:32:24;5.94;84.01
68128;SHT30;54931;52.098;21.006;2023-05-07T05:34:52;5.98;83.97
68128;SHT30;54931;52.098;21.006;2023-05-07T05:37:20;6.00;83.94
68128;SHT30;54931;52.098;21.006;2023-05-07T05:39:47;6.01;83.79
68128;SHT30;54931;52.098;21.006;2023-05-07T05:42:15;6.05;83.85
68128;SHT30;54931;52.098;21.006;2023-05-07T05:44:42;6.08;83.70
68128;SHT30;54931;52.098;21.006;2023-05-07T05:47:10;6.10;83.51
68128;SHT30;54931;52.098;21.006;2023-05-07T05:49:38;6.13;83.46
68128;SHT30;54931;52.098;21.006;2023-05-07T05:52:05;6.16;83.26
68128;SHT30;54931;52.098;21.006;2023-05-07T05:54:33;6.19;83.37
68128;SHT30;54931;52.098;21.006;2023-05-07T05:57:01;6.25;83.39
68128;SHT30;54931;52.098;21.006;2023-05-07T05:59:31;6.31;83.27
68128;SHT30;54931;52.098;21.006;2023-05-07T06:01:58;6.35;82.92
68128;SHT30;54931;52.098;21.006;2023-05-07T06:04:26;6.40;82.86
68128;SHT30;54931;52.098;21.006;2023-05-07T06:06:53;6.43;82.85
68128;SHT30;54931;52.098;21.006;2023-05-07T06:09:21;6.49;82.90
68128;SHT30;54931;52.098;21.006;2023-05-07T06:11:48;6.53;82.53
68128;SHT30;54931;52.098;21.006;2023-05-07T06:14:16;6.52;82.27
68128;SHT30;54931;52.098;21.006;2023-05-07T06:16:44;6.55;82.29
68128;SHT30;54931;52.098;21.006;2023-05-07T06:19:11;6.60;82.18
68128;SHT30;54931;52.098;21.006;2023-05-07T06:21:39;6.68;82.31
68128;SHT30;54931;52.098;21.006;2023-05-07T06:24:07;6.85;82.22
68128;SHT30;54931;52.098;21.006;2023-05-07T06:26:35;7.05;82.25
68128;SHT30;54931;52.098;21.006;2023-05-07T06:29:03;7.25;82.01
68128;SHT30;54931;52.098;21.006;2023-05-07T06:31:30;7.36;80.51
68128;SHT30;54931;52.098;21.006;2023-05-07T06:33:58;7.46;80.58
68128;SHT30;54931;52.098;21.006;2023-05-07T06:36:26;7.54;80.13
68128;SHT30;54931;52.098;21.006;2023-05-07T06:38:54;7.63;79.78
68128;SHT30;54931;52.098;21.006;2023-05-07T06:41:21;7.76;79.22
68128;SHT30;54931;52.098;21.006;2023-05-07T06:43:49;7.97;78.20
68128;SHT30;54931;52.098;21.006;2023-05-07T06:46:17;7.97;76.77
68128;SHT30;54931;52.098;21.006;2023-05-07T06:48:44;8.18;76.82
68128;SHT30;54931;52.098;21.006;2023-05-07T06:51:12;8.28;75.81
68128;SHT30;54931;52.098;21.006;2023-05-07T06:53:39;8.28;76.28
68128;SHT30;54931;52.098;21.006;2023-05-07T06:56:07;8.27;75.45
68128;SHT30;54931;52.098;21.006;2023-05-07T06:58:35;8.29;75.33
68128;SHT30;54931;52.098;21.006;2023-05-07T07:01:02;8.41;75.17
68128;SHT30;54931;52.098;21.006;2023-05-07T07:03:30;8.48;74.96
68128;SHT30;54931;52.098;21.006;2023-05-07T07:05:58;8.49;73.88
68128;SHT30;54931;52.098;21.006;2023-05-07T07:08:26;8.44;73.37
68128;SHT30;54931;52.098;21.006;2023-05-07T07:10:53;8.36;74.10
68128;SHT30;54931;52.098;21.006;2023-05-07T07:13:21;8.28;73.56
68128;SHT30;54931;52.098;21.006;2023-05-07T07:15:48;8.21;73.43
68128;SHT30;54931;52.098;21.006;2023-05-07T07:18:16;8.21;73.74
68128;SHT30;54931;52.098;21.006;2023-05-07T07:20:43;8.25;74.39
68128;SHT30;54931;52.098;21.006;2023-05-07T07:23:12;8.29;74.11
68128;SHT30;54931;52.098;21.006;2023-05-07T07:25:39;8.26;73.79
68128;SHT30;54931;52.098;21.006;2023-05-07T07:28:07;8.20;73.54
68128;SHT30;54931;52.098;21.006;2023-05-07T07:30:36;8.16;72.90
68128;SHT30;54931;52.098;21.006;2023-05-07T07:33:04;8.16;73.06
68128;SHT30;54931;52.098;21.006;2023-05-07T07:35:32;8.19;73.29
68128;SHT30;54931;52.098;21.006;2023-05-07T07:38:00;8.25;73.16
68128;SHT30;54931;52.098;21.006;2023-05-07T07:40:28;8.31;73.47
68128;SHT30;54931;52.098;21.006;2023-05-07T07:42:56;8.35;72.71
68128;SHT30;54931;52.098;21.006;2023-05-07T07:45:24;8.37;72.67
68128;SHT30;54931;52.098;21.006;2023-05-07T07:47:52;8.43;72.41
68128;SHT30;54931;52.098;21.006;2023-05-07T07:50:20;8.49;72.11
68128;SHT30;54931;52.098;21.006;2023-05-07T07:52:48;8.50;71.84
68128;SHT30;54931;52.098;21.006;2023-05-07T07:55:19;8.47;71.87
68128;SHT30;54931;52.098;21.006;2023-05-07T07:57:49;8.48;72.36
68128;SHT30;54931;52.098;21.006;2023-05-07T08:00:17;8.52;72.47
68128;SHT30;54931;52.098;21.006;2023-05-07T08:02:45;8.51;71.94
68128;SHT30;54931;52.098;21.006;2023-05-07T08:05:13;8.53;71.86
68128;SHT30;54931;52.098;21.006;2023-05-07T08:07:42;8.56;71.99
68128;SHT30;54931;52.098;21.006;2023-05-07T08:10:10;8.56;71.63
68128;SHT30;54931;52.098;21.006;2023-05-07T08:12:37;8.57;71.35
68128;SHT30;54931;52.098;21.006;2023-05-07T08:15:05;8.60;71.50
68128;SHT30;54931;52.098;21.006;2023-05-07T08:17:34;8.61;70.77
68128;SHT30;54931;52.098;21.006;2023-05-07T08:20:02;8.62;70.95
68128;SHT30;54931;52.098;21.006;2023-05-07T08:22:30;8.67;71.16
68128;SHT30;54931;52.098;21.006;2023-05-07T08:24:58;8.71;70.61
68128;SHT30;54931;52.098;21.006;2023-05-07T08:27:26;8.71;70.24
68128;SHT30;54931;52.098;21.006;2023-05-07T08:29:54;8.69;69.80
68128;SHT30;54931;52.098;21.006;2023-05-07T08:32:22;8.67;69.96
68128;SHT30;54931;52.098;21.006;2023-05-07T08:34:49;8.63;69.98
68128;SHT30;54931;52.098;21.006;2023-05-07T08:37:17;8.60;70.51
68128;SHT30;54931;52.098;21.006;2023-05-07T08:39:44;8.61;70.44
68128;SHT30;54931;52.098;21.006;2023-05-07T08:42:12;8.56;70.07
68128;SHT30;54931;52.098;21.006;2023-05-07T08:44:44;8.56;69.57
68128;SHT30;54931;52.098;21.006;2023-05-07T08:47:16;8.58;69.37
68128;SHT30;54931;52.098;21.006;2023-05-07T08:49:45;8.63;69.04
68128;SHT30;54931;52.098;21.006;2023-05-07T08:52:13;8.64;68.97
68128;SHT30;54931;52.098;21.006;2023-05-07T08:54:41;8.63;69.03
68128;SHT30;54931;52.098;21.006;2023-05-07T08:57:09;8.61;68.95
68128;SHT30;54931;52.098;21.006;2023-05-07T08:59:36;8.59;69.10
68128;SHT30;54931;52.098;21.006;2023-05-07T09:02:04;8.58;68.98
68128;SHT30;54931;52.098;21.006;2023-05-07T09:04:37;8.55;68.89
68128;SHT30;54931;52.098;21.006;2023-05-07T09:07:04;8.48;68.77
68128;SHT30;54931;52.098;21.006;2023-05-07T09:09:32;8.43;69.32
68128;SHT30;54931;52.098;21.006;2023-05-07T09:12:01;8.40;69.60
68128;SHT30;54931;52.098;21.006;2023-05-07T09:14:30;8.38;69.06
68128;SHT30;54931;52.098;21.006;2023-05-07T09:16:58;8.37;68.32
68128;SHT30;54931;52.098;21.006;2023-05-07T09:19:26;8.40;68.50
68128;SHT30;54931;52.098;21.006;2023-05-07T09:21:58;8.55;68.80
68128;SHT30;54931;52.098;21.006;2023-05-07T09:24:31;8.78;68.33
68128;SHT30;54931;52.098;21.006;2023-05-07T09:27:01;9.03;68.02
68128;SHT30;54931;52.098;21.006;2023-05-07T09:29:29;9.19;66.67
68128;SHT30;54931;52.098;21.006;2023-05-07T09:32:03;9.26;65.93
68128;SHT30;54931;52.098;21.006;2023-05-07T09:34:35;9.34;65.96
68128;SHT30;54931;52.098;21.006;2023-05-07T09:37:03;9.37;65.11
68128;SHT30;54931;52.098;21.006;2023-05-07T09:39:39;9.38;65.67
68128;SHT30;54931;52.098;21.006;2023-05-07T09:42:13;9.43;65.49
68128;SHT30;54931;52.098;21.006;2023-05-07T09:44:43;9.41;65.14
68128;SHT30;54931;52.098;21.006;2023-05-07T09:47:11;9.40;65.01
68128;SHT30;54931;52.098;21.006;2023-05-07T09:49:47;9.39;64.05
68128;SHT30;54931;52.098;21.006;2023-05-07T09:52:15;9.39;63.16
68128;SHT30;54931;52.098;21.006;2023-05-07T09:54:43;9.40;62.76
68128;SHT30;54931;52.098;21.006;2023-05-07T09:57:14;9.40;61.77
68128;SHT30;54931;52.098;21.006;2023-05-07T09:59:43;9.39;61.36
68128;SHT30;54931;52.098;21.006;2023-05-07T10:02:13;9.38;61.71
68128;SHT30;54931;52.098;21.006;2023-05-07T10:04:43;9.35;62.04
68128;SHT30;54931;52.098;21.006;2023-05-07T10:07:13;9.32;62.25
68128;SHT30;54931;52.098;21.006;2023-05-07T10:09:42;9.34;62.41
68128;SHT30;54931;52.098;21.006;2023-05-07T10:12:13;9.39;62.44
68128;SHT30;54931;52.098;21.006;2023-05-07T10:14:41;9.49;62.93
68128;SHT30;54931;52.098;21.006;2023-05-07T10:17:09;9.57;62.04
68128;SHT30;54931;52.098;21.006;2023-05-07T10:19:39;9.65;61.18
68128;SHT30;54931;52.098;21.006;2023-05-07T10:22:08;9.76;61.25
68128;SHT30;54931;52.098;21.006;2023-05-07T10:24:36;9.83;60.44
68128;SHT30;54931;52.098;21.006;2023-05-07T10:27:06;9.88;61.01
68128;SHT30;54931;52.098;21.006;2023-05-07T10:29:49;9.93;61.18
68128;SHT30;54931;52.098;21.006;2023-05-07T10:32:40;9.90;60.66
68128;SHT30;54931;52.098;21.006;2023-05-07T10:35:16;9.86;61.34
68128;SHT30;54931;52.098;21.006;2023-05-07T10:37:50;9.89;61.23
68128;SHT30;54931;52.098;21.006;2023-05-07T10:40:19;9.95;61.12
68128;SHT30;54931;52.098;21.006;2023-05-07T10:42:57;9.97;59.72
68128;SHT30;54931;52.098;21.006;2023-05-07T10:45:28;9.98;60.62
68128;SHT30;54931;52.098;21.006;2023-05-07T10:50:44;10.11;60.69
68128;SHT30;54931;52.098;21.006;2023-05-07T10:58:46;10.11;59.46
68128;SHT30;54931;52.098;21.006;2023-05-07T11:01:13;10.05;59.83
68128;SHT30;54931;52.098;21.006;2023-05-07T11:18:03;9.94;60.87
68128;SHT30;54931;52.098;21.006;2023-05-07T11:26:02;10.26;59.88
68128;SHT30;54931;52.098;21.006;2023-05-07T11:28:41;10.30;59.26
68128;SHT30;54931;52.098;21.006;2023-05-07T11:31:10;10.31;59.25
68128;SHT30;54931;52.098;21.006;2023-05-07T11:33:38;10.33;58.69
68128;SHT30;54931;52.098;21.006;2023-05-07T11:36:07;10.36;59.02
68128;SHT30;54931;52.098;21.006;2023-05-07T11:38:36;10.47;58.69
68128;SHT30;54931;52.098;21.006;2023-05-07T11:41:05;10.56;57.97
68128;SHT30;54931;52.098;21.006;2023-05-07T11:43:34;10.72;58.66
68128;SHT30;54931;52.098;21.006;2023-05-07T11:46:07;11.00;58.44
68128;SHT30;54931;52.098;21.006;2023-05-07T11:48:37;11.26;57.09
68128;SHT30;54931;52.098;21.006;2023-05-07T11:51:06;11.40;56.05
68128;SHT30;54931;52.098;21.006;2023-05-07T11:53:39;11.46;55.77
68128;SHT30;54931;52.098;21.006;2023-05-07T11:56:10;11.57;58.19
68128;SHT30;54931;52.098;21.006;2023-05-07T11:58:41;11.75;58.36
68128;SHT30;54931;52.098;21.006;2023-05-07T12:01:11;11.86;57.05
68128;SHT30;54931;52.098;21.006;2023-05-07T12:03:40;11.74;56.08
68128;SHT30;54931;52.098;21.006;2023-05-07T12:06:12;11.55;57.44
68128;SHT30;54931;52.098;21.006;2023-05-07T12:08:41;11.42;57.57
68128;SHT30;54931;52.098;21.006;2023-05-07T12:11:22;11.34;58.15
68128;SHT30;54931;52.098;21.006;2023-05-07T12:13:53;11.31;58.48
68128;SHT30;54931;52.098;21.006;2023-05-07T12:16:22;11.38;58.49
68128;SHT30;54931;52.098;21.006;2023-05-07T12:18:50;11.53;58.05
68128;SHT30;54931;52.098;21.006;2023-05-07T12:21:21;11.66;57.14
68128;SHT30;54931;52.098;21.006;2023-05-07T12:23:51;11.69;57.40
68128;SHT30;54931;52.098;21.006;2023-05-07T12:26:19;11.61;56.60
68128;SHT30;54931;52.098;21.006;2023-05-07T12:28:48;11.48;57.49
68128;SHT30;54931;52.098;21.006;2023-05-07T12:31:16;11.39;57.60
68128;SHT30;54931;52.098;21.006;2023-05-07T12:33:45;11.30;57.73
68128;SHT30;54931;52.098;21.006;2023-05-07T12:36:13;11.28;58.17
68128;SHT30;54931;52.098;21.006;2023-05-07T12:38:42;11.37;58.40
68128;SHT30;54931;52.098;21.006;2023-05-07T12:41:10;11.56;57.86
68128;SHT30;54931;52.098;21.006;2023-05-07T12:43:39;11.73;56.93
68128;SHT30;54931;52.098;21.006;2023-05-07T12:46:07;11.80;56.91
68128;SHT30;54931;52.098;21.006;2023-05-07T12:48:38;11.85;56.32
68128;SHT30;54931;52.098;21.006;2023-05-07T12:51:11;12.04;55.99
68128;SHT30;54931;52.098;21.006;2023-05-07T12:53:40;12.33;55.50
68128;SHT30;54931;52.098;21.006;2023-05-07T12:56:11;12.41;54.75
68128;SHT30;54931;52.098;21.006;2023-05-07T12:58:42;12.42;54.93
68128;SHT30;54931;52.098;21.006;2023-05-07T13:01:10;12.41;54.40
68128;SHT30;54931;52.098;21.006;2023-05-07T13:03:42;12.23;54.26
68128;SHT30;54931;52.098;21.006;2023-05-07T13:06:16;12.14;54.77
68128;SHT30;54931;52.098;21.006;2023-05-07T13:08:44;12.05;54.50
68128;SHT30;54931;52.098;21.006;2023-05-07T13:11:12;12.00;54.65
68128;SHT30;54931;52.098;21.006;2023-05-07T13:13:41;11.97;54.64
68128;SHT30;54931;52.098;21.006;2023-05-07T13:16:09;12.02;55.37
68128;SHT30;54931;52.098;21.006;2023-05-07T13:18:39;12.26;54.19
68128;SHT30;54931;52.098;21.006;2023-05-07T13:21:07;12.73;53.68
68128;SHT30;54931;52.098;21.006;2023-05-07T13:23:35;13.13;53.39
68128;SHT30;54931;52.098;21.006;2023-05-07T13:26:02;13.22;52.58
68128;SHT30;54931;52.098;21.006;2023-05-07T13:28:30;13.09;52.09
68128;SHT30;54931;52.098;21.006;2023-05-07T13:30:57;12.82;52.38
68128;SHT30;54931;52.098;21.006;2023-05-07T13:33:25;12.65;53.48
68128;SHT30;54931;52.098;21.006;2023-05-07T13:35:52;12.51;53.43
68128;SHT30;54931;52.098;21.006;2023-05-07T13:38:20;12.39;54.05
68128;SHT30;54931;52.098;21.006;2023-05-07T13:40:47;12.47;54.65
68128;SHT30;54931;52.098;21.006;2023-05-07T13:43:15;12.61;53.62
68128;SHT30;54931;52.098;21.006;2023-05-07T13:45:44;12.58;53.35
68128;SHT30;54931;52.098;21.006;2023-05-07T13:48:12;12.56;53.73
68128;SHT30;54931;52.098;21.006;2023-05-07T13:50:39;12.57;53.91
68128;SHT30;54931;52.098;21.006;2023-05-07T13:53:07;12.61;54.34
68128;SHT30;54931;52.098;21.006;2023-05-07T13:55:35;12.56;53.78
68128;SHT30;54931;52.098;21.006;2023-05-07T13:58:03;12.32;53.86
68128;SHT30;54931;52.098;21.006;2023-05-07T14:00:31;12.08;54.35
68128;SHT30;54931;52.098;21.006;2023-05-07T14:02:59;12.20;54.33
68128;SHT30;54931;52.098;21.006;2023-05-07T14:05:27;12.53;54.03
68128;SHT30;54931;52.098;21.006;2023-05-07T14:07:56;12.99;53.92
68128;SHT30;54931;52.098;21.006;2023-05-07T14:10:25;13.39;51.80
68128;SHT30;54931;52.098;21.006;2023-05-07T14:12:53;13.43;51.38
68128;SHT30;54931;52.098;21.006;2023-05-07T14:15:21;13.40;50.38
68128;SHT30;54931;52.098;21.006;2023-05-07T14:17:48;13.39;50.05
68128;SHT30;54931;52.098;21.006;2023-05-07T14:20:16;13.64;49.96
68128;SHT30;54931;52.098;21.006;2023-05-07T14:22:43;13.60;49.28
68128;SHT30;54931;52.098;21.006;2023-05-07T14:25:12;13.53;49.54
68128;SHT30;54931;52.098;21.006;2023-05-07T14:27:40;13.38;49.49
68128;SHT30;54931;52.098;21.006;2023-05-07T14:30:09;13.23;50.43
68128;SHT30;54931;52.098;21.006;2023-05-07T14:32:37;13.07;50.31
68128;SHT30;54931;52.098;21.006;2023-05-07T14:35:05;12.98;50.96
68128;SHT30;54931;52.098;21.006;2023-05-07T14:37:33;12.95;51.28
68128;SHT30;54931;52.098;21.006;2023-05-07T14:40:01;12.87;51.20
68128;SHT30;54931;52.098;21.006;2023-05-07T14:42:29;12.72;51.56
68128;SHT30;54931;52.098;21.006;2023-05-07T14:44:57;12.63;51.53
68128;SHT30;54931;52.098;21.006;2023-05-07T14:47:25;12.52;50.42
68128;SHT30;54931;52.098;21.006;2023-05-07T14:49:52;12.52;50.98
68128;SHT30;54931;52.098;21.006;2023-05-07T14:52:21;12.77;50.58
68128;SHT30;54931;52.098;21.006;2023-05-07T14:54:49;13.06;49.91
68128;SHT30;54931;52.098;21.006;2023-05-07T14:57:16;13.21;50.43
68128;SHT30;54931;52.098;21.006;2023-05-07T14:59:45;13.35;48.96
68128;SHT30;54931;52.098;21.006;2023-05-07T15:02:13;13.39;49.47
68128;SHT30;54931;52.098;21.006;2023-05-07T15:04:42;13.73;48.97
68128;SHT30;54931;52.098;21.006;2023-05-07T15:07:13;14.15;48.50
68128;SHT30;54931;52.098;21.006;2023-05-07T15:09:44;14.47;47.79
68128;SHT30;54931;52.098;21.006;2023-05-07T15:12:12;14.58;46.25
68128;SHT30;54931;52.098;21.006;2023-05-07T15:14:41;14.65;46.52
68128;SHT30;54931;52.098;21.006;2023-05-07T15:17:09;14.72;46.75
68128;SHT30;54931;52.098;21.006;2023-05-07T15:19:36;14.98;46.30
68128;SHT30;54931;52.098;21.006;2023-05-07T15:22:04;15.37;45.72
68128;SHT30;54931;52.098;21.006;2023-05-07T15:24:32;15.76;45.16
68128;SHT30;54931;52.098;21.006;2023-05-07T15:27:00;16.12;44.01
68128;SHT30;54931;52.098;21.006;2023-05-07T15:29:29;16.38;43.12
68128;SHT30;54931;52.098;21.006;2023-05-07T15:31:57;16.58;42.62
68128;SHT30;54931;52.098;21.006;2023-05-07T15:34:25;16.64;41.66
68128;SHT30;54931;52.098;21.006;2023-05-07T15:36:52;16.31;41.72
68128;SHT30;54931;52.098;21.006;2023-05-07T15:39:20;16.04;41.48
68128;SHT30;54931;52.098;21.006;2023-05-07T15:41:47;16.16;41.43
68128;SHT30;54931;52.098;21.006;2023-05-07T15:44:15;16.32;40.43
68128;SHT30;54931;52.098;21.006;2023-05-07T15:46:43;16.44;40.64
68128;SHT30;54931;52.098;21.006;2023-05-07T15:49:10;16.53;39.09
68128;SHT30;54931;52.098;21.006;2023-05-07T15:51:37;16.23;39.69
68128;SHT30;54931;52.098;21.006;2023-05-07T15:54:05;16.26;40.65
68128;SHT30;54931;52.098;21.006;2023-05-07T15:56:33;16.50;40.55
68128;SHT30;54931;52.098;21.006;2023-05-07T15:59:00;16.59;40.52
68128;SHT30;54931;52.098;21.006;2023-05-07T16:01:28;16.65;40.98
68128;SHT30;54931;52.098;21.006;2023-05-07T16:03:56;16.81;41.14